Time;durP1;ratioP1;P1;durP2;ratioP2;P2;SDS_P1;SDS_P2;PMS_P1;PMS_P2;Temp;Humidity;BMP_temperature;BMP_pressure;BME280_temperature;BME280_humidity;BME280_pressure;Samples;Min_cycle;Max_cycle;Signal;HPM_P1;HPM_P2
2023/10/20 00:00:14;;;;;;;;;;;;;;;;;;336819;29;1708;-78
2023/10/20 00:00:25;;;;;;;;;;;;;;;;;;334158;29;1361;-78
2023/10/20 00:00:36;;;;;;;;;;;;;;;;;;335330;29;1574;-78
2023/10/20 00:00:46;;;;;;;;;;;;;;;;;;332874;29;1734;-78
2023/10/20 00:00:57;;;;;;;;;;;;;;;;;;330330;29;3049;-79
2023/10/20 00:01:07;;;;;;;;;;;;;;;;;;330665;29;3097;-80
2023/10/20 00:01:17;;;;;;;;;;;;;;;;;;329499;29;5220;-80
2023/10/20 00:01:27;;;;;;;;;;;;;;;;;;331909;29;1280;-80
2023/10/20 00:01:38;;;;;;;;;;;;;;;;;;333168;29;867;-80
2023/10/20 00:01:48;;;;;;;;;;;;;;;;;;332272;29;1728;-78
2023/10/20 00:01:58;;;;;;;;;;;;;;;;;;331078;29;2184;-76
2023/10/20 00:02:08;;;;;;;;;;;;;;;;;;329266;29;1282;-77
2023/10/20 00:02:18;;;;;;;;;;;;;;;;;;329577;29;2926;-77
2023/10/20 00:02:28;;;;;;;;;;;;;;;;;;328987;29;2244;-77
2023/10/20 00:02:38;;;;;;;;;;;;;;;;;;330727;29;807;-77
2023/10/20 00:02:48;;;;;;;;;;;;;;;;;;327890;29;1866;-77
2023/10/20 00:02:59;;;;;;;;;;;;;;;;;;325996;30;1955;-79
2023/10/20 00:03:09;;;;;;;;;;;;;;;;;;325742;30;1248;-78
2023/10/20 00:03:19;;;;;;;;;;;;;;;;;;325624;30;1694;-78
2023/10/20 00:03:30;;;;;;;;;;;;;;;;;;325375;30;871;-78
2023/10/20 00:03:40;;;;;;;;;;;;;;;;;;325666;30;1297;-78
2023/10/20 00:03:50;;;;;;;;;;;;;;;;;;321807;30;2140;-78
2023/10/20 00:04:03;;;;;;;;;;;;;;;;;;321999;30;2502;-78
2023/10/20 00:04:13;;;;;;;;;;;;;;;;;;323578;30;2984;-78
2023/10/20 00:04:24;;;;;;;;;;;;;;;;;;320891;30;1333;-78
2023/10/20 00:04:34;;;;;;;;;;;;;;;;;;316961;30;3217;-78
2023/10/20 00:04:44;;;;;;;;;;;;;;;;;;314516;31;2955;-78
2023/10/20 00:04:54;;;;;;;;;;;;;;;;;;316436;31;896;-78
2023/10/20 00:05:04;;;;;;;;;;;;;;;;;;314375;31;3201;-78
2023/10/20 00:05:15;;;;;;;;;;;;;;;;;;315063;31;2761;-78
2023/10/20 00:05:25;;;;;;;;;;;;;;;;;;315171;31;1300;-78
2023/10/20 00:05:35;;;;;;;;;;;;;;;;;;313782;31;2201;-78
2023/10/20 00:05:45;;;;;;;;;;;;;;;;;;313519;31;1928;-78
2023/10/20 00:05:56;;;;;;;;;;;;;;;;;;314186;31;794;-78
2023/10/20 00:06:06;;;;;;;;;;;;;;;;;;313649;31;2746;-78
2023/10/20 00:06:16;;;;;;;;;;;;;;;;;;312941;31;3152;-78
2023/10/20 00:06:26;;;;;;;;;;;;;;;;;;311852;31;1397;-78
2023/10/20 00:06:39;;;;;;;;;;;;;;;;;;311097;31;2021;-78
2023/10/20 00:06:49;;;;;;;;;;;;;;;;;;307584;31;5047;-78
2023/10/20 00:06:59;;;;;;;;;;;;;;;;;;307121;32;4213;-78
2023/10/20 00:07:09;;;;;;;;;;;;;;;;;;308671;32;850;-78
2023/10/20 00:07:21;;;;;;;;;;;;;;;;;;307986;31;3548;-78
2023/10/20 00:07:31;;;;;;;;;;;;;;;;;;307180;32;3796;-78
2023/10/20 00:07:41;;;;;;;;;;;;;;;;;;306497;32;1263;-78
2023/10/20 00:07:53;;;;;;;;;;;;;;;;;;306705;32;3205;-77
2023/10/20 00:08:03;;;;;;;;;;;;;;;;;;302297;32;2892;-77
2023/10/20 00:08:13;;;;;;;;;;;;;;;;;;300570;32;4318;-77
2023/10/20 00:08:23;;;;;;;;;;;;;;;;;;303308;32;1221;-77
2023/10/20 00:08:33;;;;;;;;;;;;;;;;;;302484;32;4896;-79
2023/10/20 00:08:44;;;;;;;;;;;;;;;;;;300471;32;5930;-78
2023/10/20 00:08:54;;;;;;;;;;;;;;;;;;301077;32;1310;-78
2023/10/20 00:09:04;;;;;;;;;;;;;;;;;;298555;32;7808;-78
2023/10/20 00:09:15;;;;;;;;;;;;;;;;;;296825;32;5671;-78
2023/10/20 00:09:25;;;;;;;;;;;;;;;;;;295157;33;1193;-78
2023/10/20 00:09:35;;;;;;;;;;;;;;;;;;294638;33;6991;-78
2023/10/20 00:09:45;;;;;;;;;;;;;;;;;;294771;33;5377;-78
2023/10/20 00:09:55;;;;;;;;;;;;;;;;;;294230;33;1258;-78
2023/10/20 00:10:06;;;;;;;;;;;;;;;;;;289976;33;4928;-78
2023/10/20 00:10:24;;;;;;;;;;;;;;;;;;288329;34;5530;-79
2023/10/20 00:12:21;;;;;;;;;;;;;;;;;;2498773;27;19927;-78
2023/10/20 00:12:31;;;;;;;;;;;;;;;;;;354943;27;1522;-78
2023/10/20 00:12:41;;;;;;;;;;;;;;;;;;354827;27;871;-78
2023/10/20 00:12:51;;;;;;;;;;;;;;;;;;353286;28;1310;-78
2023/10/20 00:13:01;;;;;;;;;;;;;;;;;;351743;28;1336;-78
2023/10/20 00:13:12;;;;;;;;;;;;;;;;;;351939;28;934;-78
2023/10/20 00:13:22;;;;;;;;;;;;;;;;;;351980;28;1331;-78
2023/10/20 00:13:32;;;;;;;;;;;;;;;;;;351949;28;827;-79
2023/10/20 00:13:42;;;;;;;;;;;;;;;;;;353059;28;863;-79
2023/10/20 00:13:52;;;;;;;;;;;;;;;;;;352467;28;1232;-79
2023/10/20 00:14:02;;;;;;;;;;;;;;;;;;351660;28;1112;-79
2023/10/20 00:14:12;;;;;;;;;;;;;;;;;;351765;28;1364;-79
2023/10/20 00:14:23;;;;;;;;;;;;;;;;;;352050;28;1301;-78
2023/10/20 00:14:33;;;;;;;;;;;;;;;;;;350466;28;1267;-78
2023/10/20 00:14:43;;;;;;;;;;;;;;;;;;352627;28;1197;-78
2023/10/20 00:14:53;;;;;;;;;;;;;;;;;;350437;28;1265;-78
2023/10/20 00:15:03;;;;;;;;;;;;;;;;;;350540;28;823;-78
2023/10/20 00:15:17;;;;;;;;;;;;;;;;;;350588;28;1123;-78
2023/10/20 00:15:27;;;;;;;;;;;;;;;;;;351868;28;914;-78
2023/10/20 00:15:38;;;;;;;;;;;;;;;;;;349185;28;1186;-78
2023/10/20 00:15:48;;;;;;;;;;;;;;;;;;350432;28;1328;-78
2023/10/20 00:15:58;;;;;;;;;;;;;;;;;;350430;28;1326;-78
2023/10/20 00:16:09;;;;;;;;;;;;;;;;;;349096;28;1215;-78
2023/10/20 00:16:19;;;;;;;;;;;;;;;;;;350085;28;1290;-78
2023/10/20 00:16:29;;;;;;;;;;;;;;;;;;350341;28;1248;-78
2023/10/20 00:16:39;;;;;;;;;;;;;;;;;;349051;28;1275;-79
2023/10/20 00:16:49;;;;;;;;;;;;;;;;;;347722;28;1030;-79
2023/10/20 00:16:59;;;;;;;;;;;;;;;;;;346750;28;1171;-79
2023/10/20 00:17:09;;;;;;;;;;;;;;;;;;349535;28;1272;-79
2023/10/20 00:18:47;;;;;;;;;;;;;;;;;;347162;28;1119;-79
2023/10/20 00:18:57;;;;;;;;;;;;;;;;;;348869;28;1220;-79
2023/10/20 00:19:07;;;;;;;;;;;;;;;;;;349069;28;796;-79
2023/10/20 00:19:18;;;;;;;;;;;;;;;;;;346148;28;3451;-79
2023/10/20 00:19:28;;;;;;;;;;;;;;;;;;345249;28;2888;-79
2023/10/20 00:19:38;;;;;;;;;;;;;;;;;;343974;28;5722;-79
2023/10/20 00:19:49;;;;;;;;;;;;;;;;;;343961;28;3329;-79
2023/10/20 00:19:59;;;;;;;;;;;;;;;;;;343604;28;5821;-79
2023/10/20 00:20:09;;;;;;;;;;;;;;;;;;343160;28;1312;-79
2023/10/20 00:20:19;;;;;;;;;;;;;;;;;;346044;28;1245;-79
2023/10/20 00:20:29;;;;;;;;;;;;;;;;;;346374;28;1061;-79
2023/10/20 00:20:39;;;;;;;;;;;;;;;;;;345057;28;1295;-79
2023/10/20 00:20:49;;;;;;;;;;;;;;;;;;342404;28;1197;-78
2023/10/20 00:21:00;;;;;;;;;;;;;;;;;;342772;28;1329;-78
2023/10/20 00:21:10;;;;;;;;;;;;;;;;;;342389;28;1186;-78
2023/10/20 00:21:20;;;;;;;;;;;;;;;;;;341366;28;1266;-78
2023/10/20 00:21:30;;;;;;;;;;;;;;;;;;341417;28;1213;-78
2023/10/20 00:21:40;;;;;;;;;;;;;;;;;;340840;29;1340;-78
2023/10/20 00:21:50;;;;;;;;;;;;;;;;;;339521;29;1188;-78
2023/10/20 00:22:00;;;;;;;;;;;;;;;;;;340845;28;1326;-78
2023/10/20 00:22:11;;;;;;;;;;;;;;;;;;341998;28;1575;-78
2023/10/20 00:22:21;;;;;;;;;;;;;;;;;;343651;28;832;-78
2023/10/20 00:22:31;;;;;;;;;;;;;;;;;;341326;28;1561;-78
2023/10/20 00:22:41;;;;;;;;;;;;;;;;;;339283;29;1323;-78
2023/10/20 00:22:51;;;;;;;;;;;;;;;;;;339605;29;1302;-78
2023/10/20 00:23:02;;;;;;;;;;;;;;;;;;337316;29;1206;-78
2023/10/20 00:23:14;;;;;;;;;;;;;;;;;;334561;29;1776;-79
2023/10/20 00:23:24;;;;;;;;;;;;;;;;;;334641;29;1371;-79
2023/10/20 00:23:35;;;;;;;;;;;;;;;;;;335686;29;1528;-79
2023/10/20 00:23:45;;;;;;;;;;;;;;;;;;336268;29;844;-79
2023/10/20 00:23:55;;;;;;;;;;;;;;;;;;337395;29;1235;-79
2023/10/20 00:24:05;;;;;;;;;;;;;;;;;;335552;29;1203;-79
2023/10/20 00:24:15;;;;;;;;;;;;;;;;;;335399;29;1684;-79
2023/10/20 00:24:25;;;;;;;;;;;;;;;;;;335453;29;2025;-79
2023/10/20 00:24:36;;;;;;;;;;;;;;;;;;335710;29;1169;-79
2023/10/20 00:24:46;;;;;;;;;;;;;;;;;;333007;29;2212;-79
2023/10/20 00:24:56;;;;;;;;;;;;;;;;;;328713;29;1893;-79
2023/10/20 00:25:06;;;;;;;;;;;;;;;;;;327523;30;1418;-79
2023/10/20 00:25:17;;;;;;;;;;;;;;;;;;329477;29;1933;-79
2023/10/20 00:25:27;;;;;;;;;;;;;;;;;;328961;29;2043;-78
2023/10/20 00:25:37;;;;;;;;;;;;;;;;;;328702;30;772;-78
2023/10/20 00:25:47;;;;;;;;;;;;;;;;;;327701;30;1658;-78
2023/10/20 00:25:58;;;;;;;;;;;;;;;;;;328353;30;1628;-78
2023/10/20 00:26:08;;;;;;;;;;;;;;;;;;328494;30;1381;-78
2023/10/20 00:26:19;;;;;;;;;;;;;;;;;;326905;29;1729;-78
2023/10/20 00:26:29;;;;;;;;;;;;;;;;;;326865;30;1901;-78
2023/10/20 00:26:39;;;;;;;;;;;;;;;;;;327135;30;1191;-78
2023/10/20 00:26:49;;;;;;;;;;;;;;;;;;324124;30;2523;-78
2023/10/20 00:26:59;;;;;;;;;;;;;;;;;;322364;30;3439;-78
2023/10/20 00:27:09;;;;;;;;;;;;;;;;;;323348;30;1197;-78
2023/10/20 00:27:20;;;;;;;;;;;;;;;;;;322393;30;2699;-79
2023/10/20 00:27:30;;;;;;;;;;;;;;;;;;320931;30;2705;-79
2023/10/20 00:27:41;;;;;;;;;;;;;;;;;;319913;30;1312;-79
2023/10/20 00:27:51;;;;;;;;;;;;;;;;;;317728;31;1259;-79
2023/10/20 00:28:01;;;;;;;;;;;;;;;;;;315262;31;2173;-79
2023/10/20 00:28:11;;;;;;;;;;;;;;;;;;314431;31;2134;-79
2023/10/20 00:28:21;;;;;;;;;;;;;;;;;;317312;31;1330;-78
2023/10/20 00:28:32;;;;;;;;;;;;;;;;;;311440;31;2647;-78
2023/10/20 00:28:42;;;;;;;;;;;;;;;;;;308477;31;3290;-78
2023/10/20 00:28:52;;;;;;;;;;;;;;;;;;310642;31;3455;-78
2023/10/20 00:29:02;;;;;;;;;;;;;;;;;;304420;31;5905;-78
2023/10/20 00:29:12;;;;;;;;;;;;;;;;;;305174;31;4552;-78
2023/10/20 00:29:22;;;;;;;;;;;;;;;;;;310501;31;1273;-78
2023/10/20 00:29:32;;;;;;;;;;;;;;;;;;308861;31;4181;-79
2023/10/20 00:29:42;;;;;;;;;;;;;;;;;;308725;31;4217;-79
2023/10/20 00:29:52;;;;;;;;;;;;;;;;;;307551;32;1018;-79
2023/10/20 00:30:03;;;;;;;;;;;;;;;;;;306109;32;3807;-79
2023/10/20 00:30:13;;;;;;;;;;;;;;;;;;307172;31;3101;-79
2023/10/20 00:30:23;;;;;;;;;;;;;;;;;;307026;32;1351;-79
2023/10/20 00:30:33;;;;;;;;;;;;;;;;;;308344;31;3180;-79
2023/10/20 00:30:43;;;;;;;;;;;;;;;;;;305414;32;3949;-78
2023/10/20 00:30:54;;;;;;;;;;;;;;;;;;302478;32;1161;-78
2023/10/20 00:31:04;;;;;;;;;;;;;;;;;;302515;32;5060;-78
2023/10/20 00:31:16;;;;;;;;;;;;;;;;;;303076;32;6163;-78
2023/10/20 00:31:29;;;;;;;;;;;;;;;;;;301694;32;6149;-78
2023/10/20 00:31:39;;;;;;;;;;;;;;;;;;301172;32;1322;-78
2023/10/20 00:31:49;;;;;;;;;;;;;;;;;;297998;32;6684;-78
2023/10/20 00:31:59;;;;;;;;;;;;;;;;;;297494;32;6025;-78
2023/10/20 00:32:10;;;;;;;;;;;;;;;;;;298079;33;1503;-78
2023/10/20 00:32:20;;;;;;;;;;;;;;;;;;297042;33;2730;-78
2023/10/20 00:32:30;;;;;;;;;;;;;;;;;;296327;33;4878;-78
2023/10/20 00:32:41;;;;;;;;;;;;;;;;;;296909;33;4103;-78
2023/10/20 00:32:51;;;;;;;;;;;;;;;;;;296107;33;1202;-78
2023/10/20 00:33:01;;;;;;;;;;;;;;;;;;294580;33;6175;-78
2023/10/20 00:33:11;;;;;;;;;;;;;;;;;;293189;33;7898;-78
2023/10/20 00:33:21;;;;;;;;;;;;;;;;;;290367;34;1295;-78
2023/10/20 00:33:31;;;;;;;;;;;;;;;;;;286870;34;9585;-78
2023/10/20 00:35:18;;;;;;;;;;;;;;;;;;2500196;27;19926;-78
2023/10/20 00:35:28;;;;;;;;;;;;;;;;;;354414;27;1309;-78
2023/10/20 00:35:38;;;;;;;;;;;;;;;;;;353310;28;1309;-78
2023/10/20 00:35:48;;;;;;;;;;;;;;;;;;352053;28;1322;-78
2023/10/20 00:35:58;;;;;;;;;;;;;;;;;;350510;28;1202;-78
2023/10/20 00:36:09;;;;;;;;;;;;;;;;;;349302;28;1180;-78
2023/10/20 00:36:20;;;;;;;;;;;;;;;;;;349010;28;1200;-78
2023/10/20 00:36:30;;;;;;;;;;;;;;;;;;349107;28;847;-79
2023/10/20 00:36:40;;;;;;;;;;;;;;;;;;350861;28;1278;-79
2023/10/20 00:36:50;;;;;;;;;;;;;;;;;;351663;28;1399;-79
2023/10/20 00:37:00;;;;;;;;;;;;;;;;;;351675;28;1250;-79
2023/10/20 00:37:11;;;;;;;;;;;;;;;;;;351486;28;1140;-79
2023/10/20 00:37:21;;;;;;;;;;;;;;;;;;350401;28;1168;-79
2023/10/20 00:37:31;;;;;;;;;;;;;;;;;;348872;28;1220;-79
2023/10/20 00:37:41;;;;;;;;;;;;;;;;;;348834;28;3943;-79
2023/10/20 00:37:51;;;;;;;;;;;;;;;;;;348516;28;2568;-79
2023/10/20 00:38:01;;;;;;;;;;;;;;;;;;347350;28;3140;-79
2023/10/20 00:38:11;;;;;;;;;;;;;;;;;;347725;28;3430;-78
2023/10/20 00:38:21;;;;;;;;;;;;;;;;;;347180;28;3254;-78
2023/10/20 00:38:31;;;;;;;;;;;;;;;;;;348009;28;848;-78
2023/10/20 00:38:42;;;;;;;;;;;;;;;;;;346384;28;1243;-78
2023/10/20 00:38:53;;;;;;;;;;;;;;;;;;347068;28;1369;-78
2023/10/20 00:39:03;;;;;;;;;;;;;;;;;;348980;28;1222;-78
2023/10/20 00:39:13;;;;;;;;;;;;;;;;;;347416;28;1159;-78
2023/10/20 00:39:23;;;;;;;;;;;;;;;;;;347667;28;835;-78
2023/10/20 00:39:34;;;;;;;;;;;;;;;;;;347620;28;1331;-78
2023/10/20 00:39:45;;;;;;;;;;;;;;;;;;349866;28;1372;-78
2023/10/20 00:39:55;;;;;;;;;;;;;;;;;;350217;28;1322;-78
2023/10/20 00:40:07;;;;;;;;;;;;;;;;;;350324;28;1371;-78
2023/10/20 00:40:19;;;;;;;;;;;;;;;;;;347703;28;1365;-78
2023/10/20 00:40:30;;;;;;;;;;;;;;;;;;347495;28;1153;-78
2023/10/20 00:40:40;;;;;;;;;;;;;;;;;;348918;28;1203;-78
2023/10/20 00:40:50;;;;;;;;;;;;;;;;;;347740;28;1364;-78
2023/10/20 00:41:01;;;;;;;;;;;;;;;;;;350376;28;1167;-78
2023/10/20 00:41:11;;;;;;;;;;;;;;;;;;349733;28;1618;-78
2023/10/20 00:41:21;;;;;;;;;;;;;;;;;;349471;28;824;-78
2023/10/20 00:41:34;;;;;;;;;;;;;;;;;;345998;28;1276;-78
2023/10/20 00:41:44;;;;;;;;;;;;;;;;;;346109;28;1316;-78
2023/10/20 00:41:55;;;;;;;;;;;;;;;;;;344421;28;1484;-78
2023/10/20 00:42:06;;;;;;;;;;;;;;;;;;343496;28;947;-78
2023/10/20 00:42:16;;;;;;;;;;;;;;;;;;342853;28;1199;-78
2023/10/20 00:42:26;;;;;;;;;;;;;;;;;;343589;28;1307;-78
2023/10/20 00:42:37;;;;;;;;;;;;;;;;;;343625;28;1238;-78
2023/10/20 00:42:47;;;;;;;;;;;;;;;;;;344930;28;1252;-78
2023/10/20 00:42:57;;;;;;;;;;;;;;;;;;344734;28;1189;-78
2023/10/20 00:43:08;;;;;;;;;;;;;;;;;;344810;28;1203;-78
2023/10/20 00:43:18;;;;;;;;;;;;;;;;;;344827;28;1163;-78
2023/10/20 00:43:28;;;;;;;;;;;;;;;;;;342956;28;1424;-78
2023/10/20 00:43:38;;;;;;;;;;;;;;;;;;340862;28;1310;-78
2023/10/20 00:43:48;;;;;;;;;;;;;;;;;;342439;28;1034;-78
2023/10/20 00:43:58;;;;;;;;;;;;;;;;;;340539;29;1468;-78
2023/10/20 00:44:09;;;;;;;;;;;;;;;;;;340714;29;1918;-78
2023/10/20 00:44:20;;;;;;;;;;;;;;;;;;341039;29;1278;-78
2023/10/20 00:44:30;;;;;;;;;;;;;;;;;;339534;29;1231;-78
2023/10/20 00:44:40;;;;;;;;;;;;;;;;;;339938;29;971;-78
2023/10/20 00:44:50;;;;;;;;;;;;;;;;;;339492;29;1269;-78
2023/10/20 00:45:00;;;;;;;;;;;;;;;;;;336945;29;1224;-78
2023/10/20 00:45:10;;;;;;;;;;;;;;;;;;335834;29;1519;-78
2023/10/20 00:45:21;;;;;;;;;;;;;;;;;;335667;29;837;-78
2023/10/20 00:45:31;;;;;;;;;;;;;;;;;;341284;28;1596;-79
2023/10/20 00:45:41;;;;;;;;;;;;;;;;;;339884;29;1744;-79
2023/10/20 00:45:51;;;;;;;;;;;;;;;;;;339342;29;1676;-79
2023/10/20 00:46:01;;;;;;;;;;;;;;;;;;336623;29;1865;-79
2023/10/20 00:46:12;;;;;;;;;;;;;;;;;;336731;29;2192;-79
2023/10/20 00:46:22;;;;;;;;;;;;;;;;;;336876;29;1556;-79
2023/10/20 00:46:32;;;;;;;;;;;;;;;;;;338644;29;1122;-79
2023/10/20 00:46:45;;;;;;;;;;;;;;;;;;338958;29;1191;-79
2023/10/20 00:46:55;;;;;;;;;;;;;;;;;;338537;29;1153;-79
2023/10/20 00:47:05;;;;;;;;;;;;;;;;;;334376;29;3640;-79
2023/10/20 00:47:15;;;;;;;;;;;;;;;;;;335021;29;5093;-79
2023/10/20 00:47:25;;;;;;;;;;;;;;;;;;335223;29;3294;-79
2023/10/20 00:47:36;;;;;;;;;;;;;;;;;;331805;29;5449;-79
2023/10/20 00:47:46;;;;;;;;;;;;;;;;;;332653;29;2073;-79
2023/10/20 00:47:56;;;;;;;;;;;;;;;;;;331009;29;2153;-79
2023/10/20 00:48:06;;;;;;;;;;;;;;;;;;331906;29;945;-79
2023/10/20 00:48:16;;;;;;;;;;;;;;;;;;331277;29;2220;-78
2023/10/20 00:48:26;;;;;;;;;;;;;;;;;;328525;29;2486;-78
2023/10/20 00:48:36;;;;;;;;;;;;;;;;;;324830;30;1231;-78
2023/10/20 00:48:47;;;;;;;;;;;;;;;;;;324438;30;1936;-78
2023/10/20 00:48:57;;;;;;;;;;;;;;;;;;327026;30;1253;-78
2023/10/20 00:49:09;;;;;;;;;;;;;;;;;;328200;29;2046;-78
2023/10/20 00:49:19;;;;;;;;;;;;;;;;;;328187;30;1341;-78
2023/10/20 00:49:29;;;;;;;;;;;;;;;;;;324802;30;3090;-78
2023/10/20 00:49:40;;;;;;;;;;;;;;;;;;322886;30;2743;-78
2023/10/20 00:49:50;;;;;;;;;;;;;;;;;;324852;30;832;-78
2023/10/20 00:50:00;;;;;;;;;;;;;;;;;;322276;30;2887;-78
2023/10/20 00:50:11;;;;;;;;;;;;;;;;;;321188;30;3378;-78
2023/10/20 00:50:21;;;;;;;;;;;;;;;;;;318688;31;1368;-78
2023/10/20 00:50:31;;;;;;;;;;;;;;;;;;315674;31;2788;-78
2023/10/20 00:50:43;;;;;;;;;;;;;;;;;;316353;31;2809;-78
2023/10/20 00:50:53;;;;;;;;;;;;;;;;;;317723;30;2439;-78
2023/10/20 00:51:05;;;;;;;;;;;;;;;;;;318562;31;1214;-78
2023/10/20 00:51:15;;;;;;;;;;;;;;;;;;319513;30;2019;-78
2023/10/20 00:51:25;;;;;;;;;;;;;;;;;;315602;31;3039;-78
2023/10/20 00:51:35;;;;;;;;;;;;;;;;;;312951;31;1361;-78
2023/10/20 00:51:45;;;;;;;;;;;;;;;;;;318201;30;3762;-78
2023/10/20 00:51:56;;;;;;;;;;;;;;;;;;315313;31;4112;-78
2023/10/20 00:52:07;;;;;;;;;;;;;;;;;;313080;31;1223;-78
2023/10/20 00:52:17;;;;;;;;;;;;;;;;;;311416;31;1234;-78
2023/10/20 00:52:27;;;;;;;;;;;;;;;;;;309486;31;4478;-78
2023/10/20 00:52:37;;;;;;;;;;;;;;;;;;306735;32;4655;-78
2023/10/20 00:52:47;;;;;;;;;;;;;;;;;;304876;32;1228;-78
2023/10/20 00:52:57;;;;;;;;;;;;;;;;;;305368;32;3386;-78
2023/10/20 00:53:09;;;;;;;;;;;;;;;;;;307055;32;2784;-78
2023/10/20 00:53:19;;;;;;;;;;;;;;;;;;307478;32;1374;-78
2023/10/20 00:53:30;;;;;;;;;;;;;;;;;;306087;32;3363;-78
2023/10/20 00:53:40;;;;;;;;;;;;;;;;;;302679;32;4584;-78
2023/10/20 00:53:50;;;;;;;;;;;;;;;;;;302366;32;825;-78
2023/10/20 00:54:00;;;;;;;;;;;;;;;;;;300781;32;5902;-78
2023/10/20 00:54:13;;;;;;;;;;;;;;;;;;299216;32;7700;-78
2023/10/20 00:54:24;;;;;;;;;;;;;;;;;;297770;32;6348;-78
2023/10/20 00:54:34;;;;;;;;;;;;;;;;;;298219;33;1196;-78
2023/10/20 00:54:45;;;;;;;;;;;;;;;;;;298389;32;6501;-78
2023/10/20 00:54:55;;;;;;;;;;;;;;;;;;296997;33;7398;-78
2023/10/20 00:55:07;;;;;;;;;;;;;;;;;;296144;33;901;-78
2023/10/20 00:55:17;;;;;;;;;;;;;;;;;;295252;33;1272;-78
2023/10/20 00:55:27;;;;;;;;;;;;;;;;;;290796;33;5216;-78
2023/10/20 00:55:38;;;;;;;;;;;;;;;;;;285122;33;4983;-79
2023/10/20 00:55:48;;;;;;;;;;;;;;;;;;288552;34;1294;-79
2023/10/20 00:55:58;;;;;;;;;;;;;;;;;;288731;33;7041;-79
2023/10/20 00:57:33;;;;;;;;;;;;;;;;;;2492791;27;19942;-78
2023/10/20 00:57:43;;;;;;;;;;;;;;;;;;354517;27;1399;-78
2023/10/20 00:57:53;;;;;;;;;;;;;;;;;;353251;28;1228;-78
2023/10/20 00:58:04;;;;;;;;;;;;;;;;;;353225;27;1191;-78
2023/10/20 00:58:14;;;;;;;;;;;;;;;;;;351679;28;1190;-78
2023/10/20 00:58:24;;;;;;;;;;;;;;;;;;352075;28;1100;-78
2023/10/20 00:58:34;;;;;;;;;;;;;;;;;;353197;28;1303;-78
2023/10/20 00:58:44;;;;;;;;;;;;;;;;;;352635;28;1204;-78
2023/10/20 00:58:55;;;;;;;;;;;;;;;;;;352352;28;874;-78
2023/10/20 00:59:05;;;;;;;;;;;;;;;;;;351741;28;1341;-78
2023/10/20 00:59:15;;;;;;;;;;;;;;;;;;351638;28;1234;-78
2023/10/20 00:59:25;;;;;;;;;;;;;;;;;;351671;28;1254;-78
2023/10/20 00:59:35;;;;;;;;;;;;;;;;;;352000;28;835;-78
2023/10/20 00:59:45;;;;;;;;;;;;;;;;;;351815;28;962;-78
2023/10/20 00:59:56;;;;;;;;;;;;;;;;;;350868;28;1302;-78
2023/10/20 01:00:08;;;;;;;;;;;;;;;;;;350257;28;1259;-78
2023/10/20 01:00:20;;;;;;;;;;;;;;;;;;350381;28;1297;-78
2023/10/20 01:00:30;;;;;;;;;;;;;;;;;;348866;28;1235;-78
2023/10/20 01:00:40;;;;;;;;;;;;;;;;;;349078;28;1180;-78
2023/10/20 01:00:51;;;;;;;;;;;;;;;;;;349117;28;808;-78
2023/10/20 01:01:01;;;;;;;;;;;;;;;;;;350120;28;1204;-78
2023/10/20 01:01:11;;;;;;;;;;;;;;;;;;350558;28;831;-78
2023/10/20 01:01:21;;;;;;;;;;;;;;;;;;350446;28;952;-78
2023/10/20 01:01:32;;;;;;;;;;;;;;;;;;351692;28;1232;-78
2023/10/20 01:01:42;;;;;;;;;;;;;;;;;;351662;28;1046;-78
2023/10/20 01:01:52;;;;;;;;;;;;;;;;;;350862;28;923;-78
2023/10/20 01:02:03;;;;;;;;;;;;;;;;;;348819;28;1335;-78
2023/10/20 01:02:13;;;;;;;;;;;;;;;;;;348505;28;1357;-78
2023/10/20 01:02:24;;;;;;;;;;;;;;;;;;347635;28;1337;-78
2023/10/20 01:02:36;;;;;;;;;;;;;;;;;;347720;28;843;-78
2023/10/20 01:02:46;;;;;;;;;;;;;;;;;;347681;28;1377;-78
2023/10/20 01:02:57;;;;;;;;;;;;;;;;;;346728;28;1278;-78
2023/10/20 01:03:07;;;;;;;;;;;;;;;;;;347394;28;1199;-78
2023/10/20 01:03:17;;;;;;;;;;;;;;;;;;347983;28;1331;-78
2023/10/20 01:03:29;;;;;;;;;;;;;;;;;;347482;28;1390;-78
2023/10/20 01:03:39;;;;;;;;;;;;;;;;;;347229;28;926;-78
2023/10/20 01:03:49;;;;;;;;;;;;;;;;;;345912;28;1383;-78
2023/10/20 01:03:59;;;;;;;;;;;;;;;;;;342317;28;1240;-78
2023/10/20 01:04:09;;;;;;;;;;;;;;;;;;342578;28;1078;-78
2023/10/20 01:04:19;;;;;;;;;;;;;;;;;;344931;28;1189;-78
2023/10/20 01:04:29;;;;;;;;;;;;;;;;;;344538;28;1187;-78
2023/10/20 01:04:39;;;;;;;;;;;;;;;;;;344880;28;832;-78
2023/10/20 01:04:50;;;;;;;;;;;;;;;;;;344726;28;1306;-78
2023/10/20 01:05:00;;;;;;;;;;;;;;;;;;345622;28;1362;-77
2023/10/20 01:05:10;;;;;;;;;;;;;;;;;;345122;28;1170;-77
2023/10/20 01:05:23;;;;;;;;;;;;;;;;;;343566;28;1308;-77
2023/10/20 01:05:33;;;;;;;;;;;;;;;;;;341669;28;3517;-77
2023/10/20 01:05:43;;;;;;;;;;;;;;;;;;337733;28;2990;-77
2023/10/20 01:05:53;;;;;;;;;;;;;;;;;;338085;28;3388;-77
2023/10/20 01:06:04;;;;;;;;;;;;;;;;;;336360;29;3483;-77
2023/10/20 01:06:14;;;;;;;;;;;;;;;;;;338406;28;3409;-80
2023/10/20 01:06:25;;;;;;;;;;;;;;;;;;339524;29;1982;-80
2023/10/20 01:06:35;;;;;;;;;;;;;;;;;;338256;29;1303;-78
2023/10/20 01:06:48;;;;;;;;;;;;;;;;;;338217;29;1491;-78
2023/10/20 01:06:58;;;;;;;;;;;;;;;;;;338016;29;1226;-78
2023/10/20 01:07:08;;;;;;;;;;;;;;;;;;338024;29;1283;-78
2023/10/20 01:07:18;;;;;;;;;;;;;;;;;;336945;29;1106;-78
2023/10/20 01:07:28;;;;;;;;;;;;;;;;;;340129;29;1426;-78
2023/10/20 01:07:38;;;;;;;;;;;;;;;;;;340527;28;1635;-78
2023/10/20 01:07:48;;;;;;;;;;;;;;;;;;339652;29;1289;-78
2023/10/20 01:07:58;;;;;;;;;;;;;;;;;;336465;29;1921;-78
2023/10/20 01:08:08;;;;;;;;;;;;;;;;;;337049;29;1596;-78
2023/10/20 01:08:19;;;;;;;;;;;;;;;;;;339631;29;798;-78
2023/10/20 01:08:29;;;;;;;;;;;;;;;;;;339363;29;1985;-78
2023/10/20 01:08:39;;;;;;;;;;;;;;;;;;338183;29;1665;-78
2023/10/20 01:08:49;;;;;;;;;;;;;;;;;;338315;29;1231;-78
2023/10/20 01:08:59;;;;;;;;;;;;;;;;;;339596;29;1070;-78
2023/10/20 01:09:10;;;;;;;;;;;;;;;;;;336676;29;1206;-78
2023/10/20 01:09:20;;;;;;;;;;;;;;;;;;336906;29;1095;-78
2023/10/20 01:09:30;;;;;;;;;;;;;;;;;;331740;29;1933;-78
2023/10/20 01:09:40;;;;;;;;;;;;;;;;;;330647;29;2185;-78
2023/10/20 01:09:50;;;;;;;;;;;;;;;;;;330630;29;1317;-78
2023/10/20 01:10:00;;;;;;;;;;;;;;;;;;331038;29;2114;-78
2023/10/20 01:10:10;;;;;;;;;;;;;;;;;;329467;29;2343;-78
2023/10/20 01:10:21;;;;;;;;;;;;;;;;;;329497;30;907;-78
2023/10/20 01:10:31;;;;;;;;;;;;;;;;;;329889;29;2334;-78
2023/10/20 01:10:41;;;;;;;;;;;;;;;;;;332449;29;2367;-78
2023/10/20 01:10:51;;;;;;;;;;;;;;;;;;334436;29;830;-78
2023/10/20 01:11:01;;;;;;;;;;;;;;;;;;332845;29;1855;-78
2023/10/20 01:11:11;;;;;;;;;;;;;;;;;;332920;29;1486;-78
2023/10/20 01:11:21;;;;;;;;;;;;;;;;;;331751;29;1435;-78
2023/10/20 01:11:32;;;;;;;;;;;;;;;;;;328283;29;2035;-78
2023/10/20 01:11:42;;;;;;;;;;;;;;;;;;329563;29;2369;-78
2023/10/20 01:11:52;;;;;;;;;;;;;;;;;;331117;29;2654;-78
2023/10/20 01:12:03;;;;;;;;;;;;;;;;;;328158;30;1317;-78
2023/10/20 01:12:13;;;;;;;;;;;;;;;;;;326385;30;2711;-78
2023/10/20 01:12:23;;;;;;;;;;;;;;;;;;323045;30;3359;-78
2023/10/20 01:12:33;;;;;;;;;;;;;;;;;;318668;31;1261;-77
2023/10/20 01:12:43;;;;;;;;;;;;;;;;;;320431;30;3279;-78
2023/10/20 01:12:53;;;;;;;;;;;;;;;;;;321868;30;3011;-78
2023/10/20 01:13:04;;;;;;;;;;;;;;;;;;322189;30;836;-78
2023/10/20 01:13:15;;;;;;;;;;;;;;;;;;320672;30;2486;-80
2023/10/20 01:13:25;;;;;;;;;;;;;;;;;;320742;30;2115;-78
2023/10/20 01:13:36;;;;;;;;;;;;;;;;;;322190;30;824;-78
2023/10/20 01:13:46;;;;;;;;;;;;;;;;;;321486;30;3062;-78
2023/10/20 01:13:56;;;;;;;;;;;;;;;;;;318936;30;3386;-78
2023/10/20 01:14:06;;;;;;;;;;;;;;;;;;317306;31;1256;-78
2023/10/20 01:14:16;;;;;;;;;;;;;;;;;;316047;30;4301;-78
2023/10/20 01:14:26;;;;;;;;;;;;;;;;;;314739;31;4241;-78
2023/10/20 01:14:37;;;;;;;;;;;;;;;;;;315082;31;1140;-78
2023/10/20 01:14:47;;;;;;;;;;;;;;;;;;313877;31;5814;-78
2023/10/20 01:14:58;;;;;;;;;;;;;;;;;;313512;31;5099;-78
2023/10/20 01:15:09;;;;;;;;;;;;;;;;;;316207;31;3989;-78
2023/10/20 01:15:19;;;;;;;;;;;;;;;;;;313976;31;3279;-78
2023/10/20 01:15:30;;;;;;;;;;;;;;;;;;314892;31;3516;-78
2023/10/20 01:15:41;;;;;;;;;;;;;;;;;;313027;31;3524;-78
2023/10/20 01:15:51;;;;;;;;;;;;;;;;;;309600;31;1366;-78
2023/10/20 01:16:01;;;;;;;;;;;;;;;;;;308425;31;4504;-78
2023/10/20 01:16:13;;;;;;;;;;;;;;;;;;307923;31;5693;-78
2023/10/20 01:16:23;;;;;;;;;;;;;;;;;;306000;31;6015;-78
2023/10/20 01:16:33;;;;;;;;;;;;;;;;;;303321;32;1450;-78
2023/10/20 01:16:43;;;;;;;;;;;;;;;;;;299506;32;6568;-78
2023/10/20 01:16:54;;;;;;;;;;;;;;;;;;296560;33;7622;-78
2023/10/20 01:17:04;;;;;;;;;;;;;;;;;;296083;33;932;-77
2023/10/20 01:17:14;;;;;;;;;;;;;;;;;;296191;33;6178;-77
2023/10/20 01:17:25;;;;;;;;;;;;;;;;;;297149;32;5466;-77
2023/10/20 01:17:35;;;;;;;;;;;;;;;;;;297102;33;1315;-77
2023/10/20 01:17:45;;;;;;;;;;;;;;;;;;293181;33;5629;-77
2023/10/20 01:17:55;;;;;;;;;;;;;;;;;;290117;33;4948;-78
2023/10/20 01:18:05;;;;;;;;;;;;;;;;;;289324;34;1416;-78
2023/10/20 01:18:16;;;;;;;;;;;;;;;;;;290377;33;7018;-78
2023/10/20 01:18:26;;;;;;;;;;;;;;;;;;288380;33;7485;-78
2023/10/20 01:18:36;;;;;;;;;;;;;;;;;;287410;34;1292;-78
2023/10/20 01:18:46;;;;;;;;;;;;;;;;;;285519;34;8883;-78
2023/10/20 01:18:56;;;;;;;;;;;;;;;;;;284991;34;10532;-78
2023/10/20 01:19:06;;;;;;;;;;;;;;;;;;286480;34;1548;-78
2023/10/20 01:21:09;;;;;;;;;;;;;;;;;;2503876;27;20659;-79
2023/10/20 01:21:19;;;;;;;;;;;;;;;;;;355702;27;1279;-78
2023/10/20 01:21:30;;;;;;;;;;;;;;;;;;353262;28;1225;-78
2023/10/20 01:21:40;;;;;;;;;;;;;;;;;;353244;28;1223;-78